createdAt,value
2022-08-22T04:46:01.445Z,1003.09
2022-08-22T04:47:02.412Z,1003.08
2022-08-22T04:48:02.371Z,1003.09
2022-08-22T04:49:02.384Z,1003.10
2022-08-22T04:50:02.349Z,1003.10
2022-08-22T04:51:02.351Z,1003.12
2022-08-22T04:52:02.360Z,1003.13
2022-08-22T04:53:02.332Z,1003.13
2022-08-22T04:54:02.329Z,1003.14
2022-08-22T04:55:02.306Z,1003.14
2022-08-22T04:56:06.775Z,1003.14
2022-08-22T04:57:02.288Z,1003.15
2022-08-22T04:58:02.266Z,1003.14
2022-08-22T04:59:03.064Z,1003.14
2022-08-22T05:00:02.243Z,1003.13
2022-08-22T05:01:02.264Z,1003.13
2022-08-22T05:02:02.315Z,1003.12
2022-08-22T05:03:02.219Z,1003.11
2022-08-22T05:04:02.219Z,1003.10
2022-08-22T05:05:02.190Z,1003.10
2022-08-22T05:06:02.181Z,1003.09
2022-08-22T05:07:02.170Z,1003.09
2022-08-22T05:08:02.158Z,1003.10
2022-08-22T05:09:02.162Z,1003.10
2022-08-22T05:10:12.071Z,1003.11
2022-08-22T05:11:02.131Z,1003.10
2022-08-22T05:12:02.112Z,1003.10
2022-08-22T05:13:02.107Z,1003.10
2022-08-22T05:14:02.103Z,1003.10
2022-08-22T05:15:02.082Z,1003.10
2022-08-22T05:16:02.065Z,1003.10
2022-08-22T05:17:02.062Z,1003.11
2022-08-22T05:18:02.053Z,1003.12
2022-08-22T05:19:02.054Z,1003.14
2022-08-22T05:20:02.022Z,1003.16
2022-08-22T05:21:02.015Z,1003.18
2022-08-22T05:22:02.001Z,1003.20
2022-08-22T05:23:01.994Z,1003.21
2022-08-22T05:24:02.059Z,1003.20
2022-08-22T05:25:01.970Z,1003.20
2022-08-22T05:26:01.954Z,1003.19
2022-08-22T05:27:01.947Z,1003.19
2022-08-22T05:28:01.934Z,1003.20
2022-08-22T05:29:01.935Z,1003.21
2022-08-22T05:30:01.906Z,1003.23
2022-08-22T05:31:01.905Z,1003.25
2022-08-22T05:32:01.885Z,1003.28
2022-08-22T05:33:01.883Z,1003.29
2022-08-22T05:34:01.882Z,1003.31
2022-08-22T05:35:01.854Z,1003.32
2022-08-22T05:36:01.841Z,1003.33
2022-08-22T05:37:01.836Z,1003.34
2022-08-22T05:38:01.819Z,1003.35
2022-08-22T05:39:01.828Z,1003.36
2022-08-22T05:40:01.873Z,1003.37
2022-08-22T05:41:01.789Z,1003.37
2022-08-22T05:42:01.776Z,1003.36
2022-08-22T05:43:01.775Z,1003.36
2022-08-22T05:44:01.772Z,1003.36
2022-08-22T05:45:01.748Z,1003.35
2022-08-22T05:46:01.732Z,1003.35
2022-08-22T05:47:01.727Z,1003.36
2022-08-22T05:48:01.708Z,1003.36
2022-08-22T05:49:01.719Z,1003.36
2022-08-22T05:50:01.690Z,1003.37
2022-08-22T05:51:01.682Z,1003.37
2022-08-22T05:52:01.669Z,1003.38
2022-08-22T05:53:01.663Z,1003.39
2022-08-22T05:54:01.662Z,1003.40
2022-08-22T05:55:01.636Z,1003.42
2022-08-22T05:56:01.624Z,1003.44
2022-08-22T05:57:04.927Z,1003.46
2022-08-22T05:58:01.614Z,1003.46
2022-08-22T05:59:01.603Z,1003.46
2022-08-22T06:00:01.579Z,1003.45
2022-08-22T06:01:01.578Z,1003.45
2022-08-22T06:02:01.735Z,1003.45
2022-08-22T06:03:01.553Z,1003.46
2022-08-22T06:04:01.551Z,1003.46
2022-08-22T06:05:01.535Z,1003.48
2022-08-22T06:06:01.516Z,1003.49
2022-08-22T06:07:01.507Z,1003.50
2022-08-22T06:08:01.537Z,1003.51
2022-08-22T06:09:01.498Z,1003.51
2022-08-22T06:10:01.479Z,1003.52
2022-08-22T06:11:01.461Z,1003.53
2022-08-22T06:12:01.458Z,1003.53
2022-08-22T06:13:01.444Z,1003.54
2022-08-22T06:14:01.435Z,1003.54
2022-08-22T06:15:01.428Z,1003.55
2022-08-22T06:16:01.411Z,1003.55
2022-08-22T06:17:01.398Z,1003.56
2022-08-22T06:18:01.387Z,1003.56
2022-08-22T06:19:01.374Z,1003.57
2022-08-22T06:20:01.385Z,1003.57
2022-08-22T06:21:01.369Z,1003.57
2022-08-22T06:22:01.358Z,1003.57
2022-08-22T06:23:01.332Z,1003.58
2022-08-22T06:24:01.325Z,1003.58
2022-08-22T06:25:01.324Z,1003.58
2022-08-22T06:26:01.321Z,1003.57
2022-08-22T06:27:01.292Z,1003.57
2022-08-22T06:28:01.286Z,1003.57
2022-08-22T06:29:01.268Z,1003.57
2022-08-22T06:30:01.278Z,1003.57
2022-08-22T06:31:01.256Z,1003.57
2022-08-22T06:32:01.239Z,1003.57
2022-08-22T06:33:01.258Z,1003.56
2022-08-22T06:34:01.218Z,1003.57
2022-08-22T06:35:01.221Z,1003.56
2022-08-22T06:36:01.195Z,1003.56
2022-08-22T06:37:01.178Z,1003.56
2022-08-22T06:38:01.182Z,1003.57
2022-08-22T06:39:01.162Z,1003.57
2022-08-22T06:40:01.224Z,1003.58
2022-08-22T06:41:01.138Z,1003.58
2022-08-22T06:42:01.133Z,1003.57
2022-08-22T06:43:01.114Z,1003.57
2022-08-22T06:44:01.109Z,1003.57
2022-08-22T06:45:01.108Z,1003.57
2022-08-22T06:46:01.089Z,1003.57
2022-08-22T06:47:01.072Z,1003.57
2022-08-22T06:48:01.238Z,1003.57
2022-08-22T06:49:01.044Z,1003.56
2022-08-22T06:50:01.061Z,1003.56
2022-08-22T06:51:01.029Z,1003.56
2022-08-22T06:52:01.028Z,1003.56
2022-08-22T06:53:01.012Z,1003.57
2022-08-22T06:54:01.001Z,1003.57
2022-08-22T06:55:00.997Z,1003.58
2022-08-22T06:56:00.979Z,1003.59
2022-08-22T06:57:00.960Z,1003.59
2022-08-22T06:58:01.062Z,1003.61
2022-08-22T06:59:00.942Z,1003.61
2022-08-22T07:00:00.952Z,1003.63
2022-08-22T07:01:11.992Z,1003.64
2022-08-22T07:02:00.989Z,1003.65
2022-08-22T07:03:00.903Z,1003.65
2022-08-22T07:04:00.892Z,1003.65
2022-08-22T07:05:00.891Z,1003.65
2022-08-22T07:06:00.869Z,1003.65
2022-08-22T07:07:00.852Z,1003.64
2022-08-22T07:08:01.053Z,1003.64
2022-08-22T07:09:06.264Z,1003.64
2022-08-22T07:10:00.854Z,1003.64
2022-08-22T07:11:00.811Z,1003.64
2022-08-22T07:12:00.802Z,1003.63
2022-08-22T07:13:00.788Z,1003.64
2022-08-22T07:14:00.784Z,1003.64
2022-08-22T07:15:00.768Z,1003.64
2022-08-22T07:16:00.775Z,1003.65
2022-08-22T07:17:00.746Z,1003.65
2022-08-22T07:18:00.876Z,1003.65
2022-08-22T07:19:00.727Z,1003.65
2022-08-22T07:20:00.728Z,1003.65
2022-08-22T07:21:00.714Z,1003.66
2022-08-22T07:22:00.695Z,1003.67
2022-08-22T07:23:00.679Z,1003.68
2022-08-22T07:24:00.674Z,1003.68
2022-08-22T07:25:00.656Z,1003.69
2022-08-22T07:26:00.675Z,1003.70
2022-08-22T07:27:00.639Z,1003.70
2022-08-22T07:28:00.800Z,1003.71
2022-08-22T07:29:00.612Z,1003.71
2022-08-22T07:30:00.609Z,1003.71
2022-08-22T07:31:00.605Z,1003.71
2022-08-22T07:32:00.586Z,1003.72
2022-08-22T07:33:19.004Z,1003.73
2022-08-22T07:34:00.571Z,1003.73
2022-08-22T07:35:00.551Z,1003.72
2022-08-22T07:36:00.558Z,1003.72
2022-08-22T07:37:00.574Z,1003.71
2022-08-22T07:38:00.874Z,1003.70
2022-08-22T07:39:00.507Z,1003.69
2022-08-22T07:40:00.532Z,1003.68
2022-08-22T07:41:00.500Z,1003.68
2022-08-22T07:42:00.483Z,1003.68
2022-08-22T07:43:00.467Z,1003.70
2022-08-22T07:44:00.462Z,1003.70
2022-08-22T07:45:00.457Z,1003.71
2022-08-22T07:46:00.454Z,1003.72
2022-08-22T07:47:00.427Z,1003.72
2022-08-22T07:48:00.613Z,1003.72
2022-08-22T07:49:09.158Z,1003.72
2022-08-22T07:50:00.403Z,1003.71
2022-08-22T07:51:00.396Z,1003.71
2022-08-22T07:52:00.376Z,1003.70
2022-08-22T07:53:00.356Z,1003.70
2022-08-22T07:54:01.065Z,1003.72
2022-08-22T07:55:00.333Z,1003.74
2022-08-22T07:56:00.343Z,1003.74
2022-08-22T07:57:00.319Z,1003.75
2022-08-22T07:58:00.462Z,1003.74
2022-08-22T07:59:00.298Z,1003.75
2022-08-22T08:00:00.284Z,1003.75
2022-08-22T08:01:00.329Z,1003.75
2022-08-22T08:02:00.264Z,1003.76
2022-08-22T08:03:00.247Z,1003.75
2022-08-22T08:04:00.241Z,1003.76
2022-08-22T08:05:00.240Z,1003.77
2022-08-22T08:06:00.237Z,1003.78
2022-08-22T08:07:00.211Z,1003.78
2022-08-22T08:08:00.391Z,1003.79
2022-08-22T08:09:00.185Z,1003.79
2022-08-22T08:10:00.173Z,1003.79
2022-08-22T08:11:00.173Z,1003.79
2022-08-22T08:12:00.151Z,1003.79
2022-08-22T08:13:02.434Z,1003.78
2022-08-22T08:14:00.135Z,1003.76
2022-08-22T08:15:00.115Z,1003.75
2022-08-22T08:16:00.126Z,1003.74
2022-08-22T08:17:00.098Z,1003.75
2022-08-22T08:18:00.259Z,1003.73
2022-08-22T08:19:00.077Z,1003.74
2022-08-22T08:20:00.072Z,1003.73
2022-08-22T08:21:00.073Z,1003.74
2022-08-22T08:22:00.044Z,1003.74
2022-08-22T08:23:00.026Z,1003.74
2022-08-22T08:24:00.049Z,1003.75
2022-08-22T08:25:00.012Z,1003.75
2022-08-22T08:26:00.016Z,1003.75
2022-08-22T08:26:59.991Z,1003.76
2022-08-22T08:27:59.990Z,1003.75
2022-08-22T08:28:59.963Z,1003.75
2022-08-22T08:29:59.963Z,1003.75
2022-08-22T08:30:59.956Z,1003.74
2022-08-22T08:31:59.938Z,1003.72
2022-08-22T08:33:25.737Z,1003.71
2022-08-22T08:33:59.923Z,1003.70
2022-08-22T08:34:59.903Z,1003.68
2022-08-22T08:36:02.909Z,1003.67
2022-08-22T08:36:59.882Z,1003.64
2022-08-22T08:38:00.080Z,1003.62
2022-08-22T08:38:59.864Z,1003.61
2022-08-22T08:39:59.902Z,1003.59
2022-08-22T08:40:59.851Z,1003.58
2022-08-22T08:41:59.835Z,1003.58
2022-08-22T08:42:59.819Z,1003.56
2022-08-22T08:43:59.811Z,1003.57
2022-08-22T08:44:59.799Z,1003.55
2022-08-22T08:45:59.813Z,1003.54
2022-08-22T08:46:59.774Z,1003.54
2022-08-22T08:47:59.905Z,1003.53
2022-08-22T08:48:59.751Z,1003.53
2022-08-22T08:49:59.747Z,1003.52
2022-08-22T08:50:59.736Z,1003.53
2022-08-22T08:51:59.741Z,1003.54
2022-08-22T08:52:59.706Z,1003.53
2022-08-22T08:53:59.705Z,1003.53
2022-08-22T08:54:59.691Z,1003.53
2022-08-22T08:55:59.673Z,1003.51
2022-08-22T08:56:59.709Z,1003.50
2022-08-22T08:58:06.644Z,1003.49
2022-08-22T08:58:59.651Z,1003.47
2022-08-22T08:59:59.642Z,1003.45
2022-08-22T09:00:59.651Z,1003.43
2022-08-22T09:01:59.633Z,1003.41
2022-08-22T09:02:59.605Z,1003.40
2022-08-22T09:03:59.605Z,1003.39
2022-08-22T09:04:59.590Z,1003.35
2022-08-22T09:05:59.579Z,1003.36
2022-08-22T09:07:01.530Z,1003.35
2022-08-22T09:07:59.742Z,1003.33
2022-08-22T09:08:59.541Z,1003.34
2022-08-22T09:09:59.536Z,1003.33
2022-08-22T09:10:59.517Z,1003.33
2022-08-22T09:11:59.527Z,1003.32
2022-08-22T09:13:11.650Z,1003.29
2022-08-22T09:13:59.498Z,1003.28
2022-08-22T09:14:59.475Z,1003.27
2022-08-22T09:16:05.170Z,1003.27
2022-08-22T09:16:59.475Z,1003.26
2022-08-22T09:17:59.640Z,1003.26
2022-08-22T09:18:59.434Z,1003.27
2022-08-22T09:19:59.425Z,1003.28
2022-08-22T09:20:59.411Z,1003.27
2022-08-22T09:21:59.413Z,1003.22
2022-08-22T09:22:59.384Z,1003.25
2022-08-22T09:23:59.386Z,1003.24
2022-08-22T09:24:59.362Z,1003.22
2022-08-22T09:25:59.357Z,1003.22
2022-08-22T09:26:59.352Z,1003.21
2022-08-22T09:27:59.484Z,1003.21
2022-08-22T09:28:59.338Z,1003.22
2022-08-22T09:29:59.703Z,1003.22
2022-08-22T09:40:30.060Z,1003.15
2022-08-22T09:41:30.042Z,1003.15
2022-08-22T09:42:30.050Z,1003.15
2022-08-22T09:43:30.020Z,1003.12
2022-08-22T09:44:30.017Z,1003.09
2022-08-22T09:45:29.996Z,1003.08
2022-08-22T09:46:31.477Z,1003.05
2022-08-22T09:47:32.773Z,1003.04
2022-08-22T09:48:29.972Z,1003.03
2022-08-22T09:49:29.954Z,1003.03
2022-08-22T09:50:29.949Z,1003.02
2022-08-22T09:51:31.603Z,1003.00
2022-08-22T09:52:33.808Z,1002.99
2022-08-22T09:53:29.916Z,1002.98
2022-08-22T09:54:31.545Z,1002.98
2022-08-22T09:55:35.157Z,1002.97
2022-08-22T09:56:29.888Z,1002.96
2022-08-22T09:57:29.882Z,1002.96
2022-08-22T09:58:29.871Z,1002.96
2022-08-22T09:59:29.843Z,1002.94
2022-08-22T10:00:29.853Z,1002.94
2022-08-22T10:01:32.777Z,1002.94
2022-08-22T10:02:30.102Z,1002.94
2022-08-22T10:03:30.416Z,1002.93
2022-08-22T10:04:29.793Z,1002.92
2022-08-22T10:05:40.836Z,1002.93
2022-08-22T10:06:29.776Z,1002.92
2022-08-22T10:07:29.767Z,1002.91
2022-08-22T10:08:29.850Z,1002.92
2022-08-22T10:09:31.948Z,1002.93
2022-08-22T10:10:29.732Z,1002.93
2022-08-22T10:11:29.714Z,1002.92
2022-08-22T10:12:33.860Z,1002.91
2022-08-22T10:13:29.730Z,1002.88
2022-08-22T10:14:29.692Z,1002.89
2022-08-22T10:15:29.673Z,1002.88
2022-08-22T10:16:29.680Z,1002.86
2022-08-22T10:17:29.672Z,1002.83
2022-08-22T10:18:29.651Z,1002.84
2022-08-22T10:19:29.646Z,1002.84
2022-08-22T10:20:29.632Z,1002.83
2022-08-22T10:21:29.615Z,1002.85
2022-08-22T10:22:30.258Z,1002.87
2022-08-22T10:23:29.596Z,1002.84
2022-08-22T10:24:29.593Z,1002.83
2022-08-22T10:25:29.575Z,1002.82
2022-08-22T10:26:29.578Z,1002.82
2022-08-22T10:27:29.567Z,1002.79
2022-08-22T10:28:29.552Z,1002.76
2022-08-22T10:29:29.532Z,1002.74
2022-08-22T10:30:29.530Z,1002.75
2022-08-22T10:31:29.519Z,1002.75
2022-08-22T10:32:29.517Z,1002.72
2022-08-22T10:33:29.498Z,1002.71
2022-08-22T10:34:29.483Z,1002.71
2022-08-22T10:35:29.477Z,1002.71
2022-08-22T10:36:29.466Z,1002.67
2022-08-22T10:37:29.475Z,1002.68
2022-08-22T10:38:29.443Z,1002.66
2022-08-22T10:39:29.441Z,1002.66
2022-08-22T10:40:29.436Z,1002.64
2022-08-22T10:41:29.424Z,1002.60
2022-08-22T10:42:35.113Z,1002.57
2022-08-22T10:43:29.401Z,1002.56
2022-08-22T10:44:29.383Z,1002.54
2022-08-22T10:45:35.670Z,1002.54
2022-08-22T10:46:29.364Z,1002.52
2022-08-22T10:47:29.353Z,1002.53
2022-08-22T10:48:29.351Z,1002.54
2022-08-22T10:49:29.344Z,1002.53
2022-08-22T10:50:31.165Z,1002.52
2022-08-22T10:51:29.315Z,1002.50
2022-08-22T10:52:29.297Z,1002.50
2022-08-22T10:53:29.779Z,1002.51
2022-08-22T10:54:29.277Z,1002.51
2022-08-22T10:55:29.275Z,1002.52
2022-08-22T10:56:29.257Z,1002.51
2022-08-22T10:57:29.253Z,1002.51
2022-08-22T10:58:29.251Z,1002.50
2022-08-22T10:59:29.231Z,1002.49
2022-08-22T11:00:29.216Z,1002.48
2022-08-22T11:01:41.007Z,1002.49
2022-08-22T11:02:29.206Z,1002.49
2022-08-22T11:03:29.208Z,1002.48
2022-08-22T11:04:29.175Z,1002.48
2022-08-22T11:05:29.170Z,1002.46
2022-08-22T11:06:29.157Z,1002.47
2022-08-22T11:07:29.150Z,1002.47
2022-08-22T11:08:29.148Z,1002.45
2022-08-22T11:09:31.201Z,1002.46
2022-08-22T11:10:29.120Z,1002.43
2022-08-22T11:11:32.636Z,1002.43
2022-08-22T11:12:34.896Z,1002.41
2022-08-22T11:13:29.105Z,1002.42
2022-08-22T11:14:29.077Z,1002.43
2022-08-22T11:15:34.960Z,1002.42
2022-08-22T11:16:29.061Z,1002.41
2022-08-22T11:17:32.345Z,1002.42
2022-08-22T11:18:29.052Z,1002.44
2022-08-22T11:19:29.031Z,1002.44
2022-08-22T11:20:29.002Z,1002.43
2022-08-22T11:21:29.012Z,1002.41
2022-08-22T11:22:28.990Z,1002.41
2022-08-22T11:23:29.004Z,1002.41
2022-08-22T11:24:35.400Z,1002.41
2022-08-22T11:25:38.453Z,1002.41
2022-08-22T11:26:33.705Z,1002.40
2022-08-22T11:27:33.547Z,1002.38
2022-08-22T11:28:28.977Z,1002.37
2022-08-22T11:29:28.925Z,1002.37
2022-08-22T11:30:28.908Z,1002.32
2022-08-22T11:31:31.612Z,1002.31
2022-08-22T11:32:28.889Z,1002.32
2022-08-22T11:33:46.445Z,1002.29
2022-08-22T11:34:28.874Z,1002.29
2022-08-22T11:35:28.862Z,1002.29
2022-08-22T11:36:31.161Z,1002.28
2022-08-22T11:37:42.816Z,1002.30
2022-08-22T11:38:32.822Z,1002.30
2022-08-22T11:39:28.823Z,1002.29
2022-08-22T11:40:28.867Z,1002.29
2022-08-22T11:41:28.801Z,1002.28
2022-08-22T11:42:29.624Z,1002.28
2022-08-22T11:43:28.792Z,1002.28
2022-08-22T11:44:28.766Z,1002.27
2022-08-22T11:45:28.765Z,1002.29
2022-08-22T11:46:28.742Z,1002.25
2022-08-22T11:47:28.766Z,1002.25
2022-08-22T11:48:28.742Z,1002.27
2022-08-22T11:49:28.723Z,1002.25
2022-08-22T11:50:28.711Z,1002.26
2022-08-22T11:51:28.702Z,1002.26
2022-08-22T11:52:28.691Z,1002.28
2022-08-22T11:53:28.681Z,1002.26
2022-08-22T11:54:31.073Z,1002.23
2022-08-22T11:55:32.974Z,1002.21
2022-08-22T11:56:28.648Z,1002.20
2022-08-22T11:57:28.635Z,1002.18
2022-08-22T11:58:29.171Z,1002.19
2022-08-22T11:59:28.617Z,1002.18
2022-08-22T12:00:28.604Z,1002.17
2022-08-22T12:01:34.359Z,1002.16
2022-08-22T12:02:28.667Z,1002.13
2022-08-22T12:03:28.589Z,1002.12
2022-08-22T12:04:28.579Z,1002.11
2022-08-22T12:05:28.559Z,1002.11
2022-08-22T12:06:28.543Z,1002.10
2022-08-22T12:07:28.541Z,1002.11
2022-08-22T12:08:28.549Z,1002.09
2022-08-22T12:09:29.825Z,1002.07
2022-08-22T12:10:28.496Z,1002.04
2022-08-22T12:11:28.493Z,1002.03
2022-08-22T12:12:28.478Z,1002.06
2022-08-22T12:13:35.040Z,1002.07
2022-08-22T12:14:28.464Z,1002.04
2022-08-22T12:15:28.591Z,1002.03
2022-08-22T12:16:28.438Z,1002.02
2022-08-22T12:17:55.099Z,1002.01
2022-08-22T12:18:28.437Z,1002.00
2022-08-22T12:19:28.411Z,1001.98
2022-08-22T12:20:28.398Z,1001.95
2022-08-22T12:21:28.392Z,1001.95
2022-08-22T12:22:28.852Z,1001.93
2022-08-22T12:23:40.783Z,1001.92
2022-08-22T12:24:28.363Z,1001.91
2022-08-22T12:25:28.348Z,1001.90
2022-08-22T12:26:28.341Z,1001.91
2022-08-22T12:27:29.277Z,1001.89
2022-08-22T12:28:28.326Z,1001.89
2022-08-22T12:29:34.068Z,1001.84
2022-08-22T12:30:28.304Z,1001.81
2022-08-22T12:31:28.290Z,1001.81
2022-08-22T12:32:28.277Z,1001.80
2022-08-22T12:33:28.269Z,1001.83
2022-08-22T12:34:28.265Z,1001.81
2022-08-22T12:35:30.320Z,1001.78
2022-08-22T12:36:28.233Z,1001.81
2022-08-22T12:37:28.225Z,1001.81
2022-08-22T12:38:30.662Z,1001.80
2022-08-22T12:39:28.225Z,1001.80
2022-08-22T12:40:28.246Z,1001.78
2022-08-22T12:41:35.240Z,1001.75
2022-08-22T12:42:28.209Z,1001.75
2022-08-22T12:43:28.170Z,1001.72
2022-08-22T12:44:28.172Z,1001.72
2022-08-22T12:45:28.153Z,1001.69
2022-08-22T12:46:28.319Z,1001.68
2022-08-22T12:47:28.134Z,1001.67
2022-08-22T12:48:28.112Z,1001.64
2022-08-22T12:49:28.118Z,1001.66
2022-08-22T12:50:28.092Z,1001.66
2022-08-22T12:51:29.482Z,1001.66
2022-08-22T12:52:28.068Z,1001.65
2022-08-22T12:53:28.305Z,1001.64
2022-08-22T12:54:28.067Z,1001.63
2022-08-22T12:55:28.054Z,1001.66
2022-08-22T12:56:28.029Z,1001.63
2022-08-22T12:57:28.031Z,1001.65
2022-08-22T12:58:33.089Z,1001.65
2022-08-22T12:59:28.016Z,1001.66
2022-08-22T13:00:29.449Z,1001.66
2022-08-22T13:01:34.096Z,1001.63
2022-08-22T13:02:27.976Z,1001.63
2022-08-22T13:03:27.960Z,1001.61
2022-08-22T13:04:33.027Z,1001.61
2022-08-22T13:05:27.944Z,1001.60
2022-08-22T13:06:27.927Z,1001.60
2022-08-22T13:07:27.930Z,1001.60
2022-08-22T13:08:27.908Z,1001.60
2022-08-22T13:09:28.516Z,1001.60
2022-08-22T13:10:27.885Z,1001.59
2022-08-22T13:11:27.884Z,1001.59
2022-08-22T13:12:27.864Z,1001.59
2022-08-22T13:13:31.329Z,1001.59
2022-08-22T13:14:27.862Z,1001.60
2022-08-22T13:15:27.846Z,1001.59
2022-08-22T13:16:27.826Z,1001.59
2022-08-22T13:17:27.817Z,1001.61
2022-08-22T13:18:30.762Z,1001.59
2022-08-22T13:19:27.814Z,1001.57
2022-08-22T13:20:27.787Z,1001.56
2022-08-22T13:21:31.501Z,1001.52
2022-08-22T13:22:27.762Z,1001.51
2022-08-22T13:23:27.789Z,1001.51
2022-08-22T13:24:39.080Z,1001.49
2022-08-22T13:25:27.745Z,1001.46
2022-08-22T13:26:34.440Z,1001.44
2022-08-22T13:27:30.257Z,1001.42
2022-08-22T13:28:27.704Z,1001.41
2022-08-22T13:29:27.711Z,1001.41
2022-08-22T13:30:27.684Z,1001.40
2022-08-22T13:31:27.681Z,1001.43
2022-08-22T13:32:27.808Z,1001.43
2022-08-22T13:33:27.767Z,1001.45
2022-08-22T13:34:27.655Z,1001.43
2022-08-22T13:35:27.634Z,1001.41
2022-08-22T13:36:27.621Z,1001.42
2022-08-22T13:37:27.615Z,1001.42
2022-08-22T13:38:27.597Z,1001.40
2022-08-22T13:39:27.602Z,1001.40
2022-08-22T13:40:27.610Z,1001.41
2022-08-22T13:41:27.572Z,1001.41
2022-08-22T13:42:29.884Z,1001.38
2022-08-22T13:43:27.548Z,1001.40
2022-08-22T13:44:27.550Z,1001.39
2022-08-22T13:45:27.528Z,1001.37
2022-08-22T13:46:28.188Z,1001.37
2022-08-22T13:47:27.512Z,1001.36
2022-08-22T13:48:28.671Z,1001.35
2022-08-22T13:49:27.506Z,1001.33
2022-08-22T13:50:27.474Z,1001.34
2022-08-22T13:51:27.465Z,1001.34
2022-08-22T13:52:29.758Z,1001.34
2022-08-22T13:53:27.445Z,1001.33
2022-08-22T13:54:27.449Z,1001.34
2022-08-22T13:55:28.873Z,1001.34
2022-08-22T13:56:27.410Z,1001.35
2022-08-22T13:57:27.413Z,1001.35
2022-08-22T13:58:27.393Z,1001.36
2022-08-22T13:59:49.132Z,1001.36
2022-08-22T14:00:29.391Z,1001.36
2022-08-22T14:01:28.578Z,1001.36
2022-08-22T14:02:31.041Z,1001.36
2022-08-22T14:03:27.349Z,1001.38
2022-08-22T14:04:32.208Z,1001.37
2022-08-22T14:05:27.331Z,1001.37
2022-08-22T14:06:36.994Z,1001.37
2022-08-22T14:07:27.335Z,1001.38
2022-08-22T14:08:27.321Z,1001.37
2022-08-22T14:09:30.720Z,1001.37
2022-08-22T14:10:27.275Z,1001.37
2022-08-22T14:11:27.270Z,1001.38
2022-08-22T14:12:27.252Z,1001.36
2022-08-22T14:13:27.245Z,1001.37
2022-08-22T14:14:27.239Z,1001.36
2022-08-22T14:15:33.945Z,1001.37
2022-08-22T14:16:27.216Z,1001.36
2022-08-22T14:17:27.199Z,1001.37
2022-08-22T14:18:30.307Z,1001.37
2022-08-22T14:19:27.417Z,1001.36
2022-08-22T14:20:32.507Z,1001.37
2022-08-22T14:21:27.182Z,1001.38
2022-08-22T14:22:31.664Z,1001.38
2022-08-22T14:23:27.433Z,1001.38
2022-08-22T14:24:27.408Z,1001.38
2022-08-22T14:25:27.115Z,1001.38
2022-08-22T14:26:33.014Z,1001.38
2022-08-22T14:27:27.099Z,1001.39
2022-08-22T14:28:27.757Z,1001.39
2022-08-22T14:29:27.221Z,1001.39
2022-08-22T14:30:27.063Z,1001.39
2022-08-22T14:31:27.058Z,1001.39
2022-08-22T14:32:30.942Z,1001.40
2022-08-22T14:33:27.042Z,1001.41
2022-08-22T14:34:27.041Z,1001.41
2022-08-22T14:35:35.297Z,1001.41
2022-08-22T14:36:27.008Z,1001.41
2022-08-22T14:37:27.000Z,1001.41
2022-08-22T14:38:27.434Z,1001.41
2022-08-22T14:39:26.993Z,1001.40
2022-08-22T14:40:27.005Z,1001.40
2022-08-22T14:41:26.955Z,1001.39
2022-08-22T14:42:27.056Z,1001.39
2022-08-22T14:43:26.936Z,1001.39
2022-08-22T14:44:26.953Z,1001.39
2022-08-22T14:45:26.911Z,1001.38
2022-08-22T14:46:26.991Z,1001.36
2022-08-22T14:47:54.163Z,1001.35
2022-08-22T14:48:30.979Z,1001.33
2022-08-22T14:49:26.889Z,1001.31
2022-08-22T14:50:26.860Z,1001.31
2022-08-22T14:51:26.846Z,1001.30
2022-08-22T14:52:29.591Z,1001.29
2022-08-22T14:53:26.828Z,1001.29
2022-08-22T14:54:29.155Z,1001.27
2022-08-22T14:55:26.805Z,1001.27
2022-08-22T14:56:26.799Z,1001.26
2022-08-22T14:57:26.779Z,1001.26
2022-08-22T14:58:27.807Z,1001.26
2022-08-22T14:59:26.780Z,1001.25
2022-08-22T15:00:28.511Z,1001.25
2022-08-22T15:01:26.808Z,1001.25
2022-08-22T15:02:26.734Z,1001.25
2022-08-22T15:03:26.721Z,1001.24
2022-08-22T15:04:26.718Z,1001.23
2022-08-22T15:05:26.718Z,1001.22
2022-08-22T15:06:26.896Z,1001.20
2022-08-22T15:07:26.682Z,1001.19
2022-08-22T15:08:27.473Z,1001.18
2022-08-22T15:09:26.662Z,1001.17
2022-08-22T15:10:26.673Z,1001.16
2022-08-22T15:11:26.641Z,1001.15
2022-08-22T15:12:26.631Z,1001.15
2022-08-22T15:13:29.637Z,1001.14
2022-08-22T15:14:26.617Z,1001.14
2022-08-22T15:15:26.614Z,1001.14
2022-08-22T15:16:26.593Z,1001.14
2022-08-22T15:17:26.576Z,1001.13
2022-08-22T15:18:26.571Z,1001.14
2022-08-22T15:19:27.294Z,1001.14
2022-08-22T15:20:28.099Z,1001.14
2022-08-22T15:21:26.542Z,1001.13
2022-08-22T15:22:27.642Z,1001.13
2022-08-22T15:23:26.516Z,1001.13
2022-08-22T15:24:26.504Z,1001.13
2022-08-22T15:25:26.512Z,1001.13
2022-08-22T15:26:26.490Z,1001.12
2022-08-22T15:27:26.477Z,1001.13
2022-08-22T15:28:26.467Z,1001.13
2022-08-22T15:29:26.460Z,1001.12
2022-08-22T15:30:26.467Z,1001.11
2022-08-22T15:31:26.464Z,1001.11
2022-08-22T15:32:26.636Z,1001.11
2022-08-22T15:33:26.413Z,1001.10
2022-08-22T15:34:26.407Z,1001.08
2022-08-22T15:35:26.408Z,1001.08
2022-08-22T15:36:26.385Z,1001.05
2022-08-22T15:37:26.371Z,1001.06
2022-08-22T15:38:27.669Z,1001.05
2022-08-22T15:39:26.352Z,1001.06
2022-08-22T15:40:26.414Z,1001.05
2022-08-22T15:41:31.123Z,1001.04
2022-08-22T15:42:26.335Z,1001.04
2022-08-22T15:43:26.312Z,1001.02
2022-08-22T15:44:32.514Z,1001.01
2022-08-22T15:45:26.308Z,1001.01
2022-08-22T15:46:26.314Z,1001.00
2022-08-22T15:47:27.628Z,1000.99
2022-08-22T15:48:26.263Z,1001.00
2022-08-22T15:49:26.247Z,1001.00
2022-08-22T15:50:26.259Z,1001.00
2022-08-22T15:51:26.226Z,1001.00
2022-08-22T15:52:26.224Z,1001.01
2022-08-22T15:53:26.197Z,1001.00
2022-08-22T15:54:26.200Z,1000.99
2022-08-22T15:55:26.193Z,1000.99
2022-08-22T15:56:26.167Z,1000.98
2022-08-22T15:57:26.163Z,1000.98
2022-08-22T15:58:26.139Z,1000.98
2022-08-22T15:59:26.150Z,1000.98
2022-08-22T16:00:27.881Z,1000.97
2022-08-22T16:01:26.227Z,1000.97
2022-08-22T16:02:26.103Z,1000.97
2022-08-22T16:03:26.090Z,1000.97
2022-08-22T16:04:26.085Z,1000.97
2022-08-22T16:05:26.085Z,1000.97
2022-08-22T16:06:26.062Z,1000.97
2022-08-22T16:07:26.045Z,1000.97
2022-08-22T16:08:26.037Z,1000.97
2022-08-22T16:09:26.029Z,1000.97
2022-08-22T16:10:26.041Z,1000.98
2022-08-22T16:11:28.506Z,1000.98
2022-08-22T16:12:25.997Z,1000.98
2022-08-22T16:13:25.976Z,1000.98
2022-08-22T16:14:25.966Z,1000.98
2022-08-22T16:15:25.960Z,1000.98
2022-08-22T16:16:25.946Z,1000.99
2022-08-22T16:17:25.934Z,1001.00
2022-08-22T16:18:25.924Z,1001.00
2022-08-22T16:19:25.910Z,1001.01
2022-08-22T16:20:25.915Z,1001.01
2022-08-22T16:21:25.891Z,1001.01
2022-08-22T16:22:25.882Z,1001.03
2022-08-22T16:23:25.880Z,1001.03
2022-08-22T16:24:25.860Z,1001.04
2022-08-22T16:25:25.864Z,1001.04
2022-08-22T16:26:25.840Z,1001.05
2022-08-22T16:27:25.823Z,1001.05
2022-08-22T16:28:54.425Z,1001.07
2022-08-22T16:29:25.808Z,1001.07
2022-08-22T16:30:25.810Z,1001.05
2022-08-22T16:31:25.780Z,1001.08
2022-08-22T16:32:25.773Z,1001.08
2022-08-22T16:33:25.765Z,1001.09
2022-08-22T16:34:26.141Z,1001.10
2022-08-22T16:35:25.745Z,1001.10
2022-08-22T16:36:25.726Z,1001.11
2022-08-22T16:37:25.709Z,1001.11
2022-08-22T16:38:25.699Z,1001.12
2022-08-22T16:39:25.684Z,1001.10
2022-08-22T16:40:25.782Z,1001.11
2022-08-22T16:41:25.674Z,1001.12
2022-08-22T16:42:25.659Z,1001.12
2022-08-22T16:43:28.886Z,1001.12
2022-08-22T16:44:25.640Z,1001.12
2022-08-22T16:45:25.640Z,1001.11
2022-08-22T16:46:25.620Z,1001.12
2022-08-22T16:47:25.606Z,1001.09
2022-08-22T16:48:25.600Z,1001.09
2022-08-22T16:49:25.586Z,1001.08
2022-08-22T16:50:25.588Z,1001.08
2022-08-22T16:51:25.553Z,1001.09
2022-08-22T16:52:25.562Z,1001.09
2022-08-22T16:53:25.544Z,1001.10
2022-08-22T16:54:25.540Z,1001.10
2022-08-22T16:55:25.549Z,1001.11
2022-08-22T16:56:25.521Z,1001.11
2022-08-22T16:57:25.504Z,1001.12
2022-08-22T16:58:32.456Z,1001.13
2022-08-22T16:59:25.508Z,1001.13
2022-08-22T17:00:25.482Z,1001.13